Oxford Mills, Iowa
Current Conditions -  °F | °C
As of 12:35 PM on Thursday 29 Jan 2015 (Local Time) from KMXO Reporting Station
Overcast Overcast  
Wind Chill: 25°   Ceiling: 1700
Heat Index: 36°   Visibility: 10mi
Dew Point: 32°   Wind: 17mph
Humidity: 87%   Direction: 310°NW
Pressure: 30.11"   Gusts: NA
Location:  41.9902°N, 90.9567°W
Report Text: KMXO 291835Z AUTO 31015KT 10SM OVC017 02/00 A3011 RMK AO2
Loading
Personal Weather Stations






























Interactive Weather Map New forecast layout! Learn more

10-Day Weather Forecast

Advertisements
Track Severe Weather on mobile